This is the latest recevied weather packets stored in our database for station/object OK1FET-16. If no packets are shown the sender has not sent any weather packets the latest 1 day(s).
| Time | Temp. | Humidity | Pressure | Rain* | Wind** | Luminosity | Snow |
|---|---|---|---|---|---|---|---|
| 1778008917 | 8.89° C | 100% | 1005.5 hPa | - | 3.58 m/s, 90° | - | - |
| 1778008648 | 8.89° C | 100% | 1005.3 hPa | - | 6.26 m/s, 80° | - | - |
| 1778008378 | 8.89° C | 100% | 1005.1 hPa | - | 7.15 m/s, 60° | - | - |
| 1778008113 | 8.89° C | 100% | 1004.9 hPa | - | 8.05 m/s, 47° | - | - |
| 1778008112 | 8.89° C | 100% | 1004.9 hPa | - | 8.05 m/s, 47° | - | - |
| 1778007839 | 9.44° C | 100% | 1004.8 hPa | - | 6.26 m/s, 54° | - | - |
| 1778007303 | 10.56° C | 100% | 1004.7 hPa | - | 4.47 m/s, 38° | - | - |
| 1778007303 | 10.56° C | 100% | 1004.7 hPa | - | 4.47 m/s, 38° | - | - |
| 1778007299 | 10.56° C | 100% | 1004.7 hPa | - | 4.47 m/s, 38° | - | - |
| 1778006764 | 12.22° C | 100% | 1004.7 hPa | - | 2.68 m/s, 24° | - | - |
| 1778006763 | 12.22° C | 100% | 1004.7 hPa | - | 2.68 m/s, 24° | - | - |
| 1778006763 | 12.22° C | 100% | 1004.7 hPa | - | 2.68 m/s, 24° | - | - |
| 1778006220 | 12.22° C | 100% | 1003.3 hPa | - | 3.13 m/s, 163° | - | - |
| 1778005954 | 12.22° C | 100% | 1003.1 hPa | - | 3.13 m/s, 165° | - | - |
| 1778005954 | 12.22° C | 100% | 1003.1 hPa | - | 3.13 m/s, 165° | - | - |
| 1778005951 | 12.22° C | 100% | 1003.1 hPa | - | 3.13 m/s, 165° | - | - |
| 1778005687 | - | - | - | - | 2.68 m/s, 187° | - | - |
| 1778005684 | 12.78° C | 100% | 1003 hPa | - | 2.68 m/s, 187° | - | - |
| 1778005684 | 12.78° C | 100% | 1003 hPa | - | 2.68 m/s, 187° | - | - |
| 1778005684 | 12.78° C | 100% | 1003 hPa | - | 2.68 m/s, 187° | - | - |
| 1778005684 | 12.78° C | 100% | 1003 hPa | - | 2.68 m/s, 187° | - | - |
| 1778002710 | 13.89° C | 76% | 1003.6 hPa | - | 2.24 m/s, 142° | - | - |
| 1778002440 | 13.89° C | 76% | 1003.6 hPa | - | 2.24 m/s, 137° | - | - |
| 1778001364 | 13.89° C | 76% | 1003.5 hPa | - | 3.13 m/s, 134° | - | - |
| 1778001364 | 13.89° C | 76% | 1003.5 hPa | - | 3.13 m/s, 134° | - | - |
* Rain since midnight (hover to see other rain measurements)
** Current wind speed in m/s (hover to see current wind gust speed)